Terminal Aerodrome Forecast
Issued by NWS Grand Junction, CO

Home | Current Version | Previous Version | Text Only | Print | Product List | Glossary On
Versions: 1 2 3 4 5 6 7 8 9 10 11 12 13 14 15 16 17 18 19 20 21 22 23 24 25 26 27 28 29 30 31 32 33 34 35 36 37 38 39 40 41 42
000
FTUS45 KGJT 202331
TAFGJT
TAF
KGJT 202331Z 2100/2124 30009KT P6SM SCT090 SCT140
      TEMPO 2100/2102 VRB17G27KT -SHRA
     FM210200 09006KT P6SM FEW150
     FM210600 12010KT P6SM FEW150
     FM211700 12005KT P6SM SKC
     FM212000 28007KT P6SM FEW120=

USA.gov is the U.S. government's official web portal to all federal, state and local government web resources and services.